sensor_id;sensor_type;location;lat;lon;timestamp;P1;durP1;ratioP1;P2;durP2;ratioP2
14381;SDS011;7275;50.328;8.720;2024-02-14T00:00:20;4.87;;;2.90;;
14381;SDS011;7275;50.328;8.720;2024-02-14T00:02:47;6.50;;;3.60;;
14381;SDS011;7275;50.328;8.720;2024-02-14T00:05:17;5.10;;;3.03;;
14381;SDS011;7275;50.328;8.720;2024-02-14T00:07:45;5.40;;;3.27;;
14381;SDS011;7275;50.328;8.720;2024-02-14T00:10:12;3.97;;;2.97;;
14381;SDS011;7275;50.328;8.720;2024-02-14T00:12:40;6.27;;;3.10;;
14381;SDS011;7275;50.328;8.720;2024-02-14T00:15:08;4.77;;;3.07;;
14381;SDS011;7275;50.328;8.720;2024-02-14T00:17:36;5.53;;;3.37;;
14381;SDS011;7275;50.328;8.720;2024-02-14T00:20:04;6.23;;;3.20;;
14381;SDS011;7275;50.328;8.720;2024-02-14T00:22:34;5.40;;;3.20;;
14381;SDS011;7275;50.328;8.720;2024-02-14T00:25:02;5.50;;;3.43;;
14381;SDS011;7275;50.328;8.720;2024-02-14T00:27:30;4.03;;;3.00;;
14381;SDS011;7275;50.328;8.720;2024-02-14T00:29:58;4.90;;;3.40;;
14381;SDS011;7275;50.328;8.720;2024-02-14T00:32:26;5.57;;;3.40;;
14381;SDS011;7275;50.328;8.720;2024-02-14T00:34:53;5.23;;;3.37;;
14381;SDS011;7275;50.328;8.720;2024-02-14T00:37:21;5.83;;;3.60;;
14381;SDS011;7275;50.328;8.720;2024-02-14T00:39:50;5.43;;;3.50;;
14381;SDS011;7275;50.328;8.720;2024-02-14T00:42:18;6.90;;;3.80;;
14381;SDS011;7275;50.328;8.720;2024-02-14T00:44:45;4.87;;;3.37;;
14381;SDS011;7275;50.328;8.720;2024-02-14T00:47:13;4.57;;;3.23;;
14381;SDS011;7275;50.328;8.720;2024-02-14T00:49:40;6.43;;;3.50;;
14381;SDS011;7275;50.328;8.720;2024-02-14T00:52:08;4.47;;;3.23;;
14381;SDS011;7275;50.328;8.720;2024-02-14T00:54:36;6.07;;;3.83;;
14381;SDS011;7275;50.328;8.720;2024-02-14T00:57:05;4.80;;;3.63;;
14381;SDS011;7275;50.328;8.720;2024-02-14T00:59:33;4.57;;;3.73;;
14381;SDS011;7275;50.328;8.720;2024-02-14T01:02:00;6.20;;;3.73;;
14381;SDS011;7275;50.328;8.720;2024-02-14T01:04:28;9.17;;;3.67;;
14381;SDS011;7275;50.328;8.720;2024-02-14T01:06:55;5.03;;;3.60;;
14381;SDS011;7275;50.328;8.720;2024-02-14T01:09:24;4.73;;;3.47;;
14381;SDS011;7275;50.328;8.720;2024-02-14T01:11:51;6.37;;;3.70;;
14381;SDS011;7275;50.328;8.720;2024-02-14T01:14:20;3.90;;;3.50;;
14381;SDS011;7275;50.328;8.720;2024-02-14T01:16:48;5.33;;;3.63;;
14381;SDS011;7275;50.328;8.720;2024-02-14T01:19:16;5.80;;;3.70;;
14381;SDS011;7275;50.328;8.720;2024-02-14T01:21:45;5.80;;;3.37;;
14381;SDS011;7275;50.328;8.720;2024-02-14T01:24:14;6.70;;;3.73;;
14381;SDS011;7275;50.328;8.720;2024-02-14T01:26:42;5.40;;;3.73;;
14381;SDS011;7275;50.328;8.720;2024-02-14T01:29:10;4.57;;;3.50;;
14381;SDS011;7275;50.328;8.720;2024-02-14T01:31:39;6.03;;;3.30;;
14381;SDS011;7275;50.328;8.720;2024-02-14T01:34:07;5.57;;;3.70;;
14381;SDS011;7275;50.328;8.720;2024-02-14T01:36:35;4.90;;;3.70;;
14381;SDS011;7275;50.328;8.720;2024-02-14T01:39:04;6.23;;;3.90;;
14381;SDS011;7275;50.328;8.720;2024-02-14T01:41:33;6.33;;;3.80;;
14381;SDS011;7275;50.328;8.720;2024-02-14T01:44:01;4.93;;;3.60;;
14381;SDS011;7275;50.328;8.720;2024-02-14T01:46:29;8.03;;;3.57;;
14381;SDS011;7275;50.328;8.720;2024-02-14T01:48:58;8.10;;;3.80;;
14381;SDS011;7275;50.328;8.720;2024-02-14T01:51:26;5.87;;;4.00;;
14381;SDS011;7275;50.328;8.720;2024-02-14T01:53:54;5.73;;;3.73;;
14381;SDS011;7275;50.328;8.720;2024-02-14T01:56:22;5.50;;;3.80;;
14381;SDS011;7275;50.328;8.720;2024-02-14T01:58:50;4.90;;;3.50;;
14381;SDS011;7275;50.328;8.720;2024-02-14T02:01:18;7.50;;;3.60;;
14381;SDS011;7275;50.328;8.720;2024-02-14T02:03:45;8.77;;;3.93;;
14381;SDS011;7275;50.328;8.720;2024-02-14T02:06:14;4.90;;;3.50;;
14381;SDS011;7275;50.328;8.720;2024-02-14T02:08:43;5.77;;;3.60;;
14381;SDS011;7275;50.328;8.720;2024-02-14T02:11:11;5.37;;;3.70;;
14381;SDS011;7275;50.328;8.720;2024-02-14T02:13:40;5.67;;;3.87;;
14381;SDS011;7275;50.328;8.720;2024-02-14T02:16:07;4.77;;;3.57;;
14381;SDS011;7275;50.328;8.720;2024-02-14T02:18:35;5.27;;;3.60;;
14381;SDS011;7275;50.328;8.720;2024-02-14T02:21:03;4.63;;;3.60;;
14381;SDS011;7275;50.328;8.720;2024-02-14T02:23:34;5.30;;;3.70;;
14381;SDS011;7275;50.328;8.720;2024-02-14T02:26:02;5.07;;;3.50;;
14381;SDS011;7275;50.328;8.720;2024-02-14T02:28:30;6.07;;;3.53;;
14381;SDS011;7275;50.328;8.720;2024-02-14T02:30:57;5.43;;;3.60;;
14381;SDS011;7275;50.328;8.720;2024-02-14T02:33:25;6.40;;;3.90;;
14381;SDS011;7275;50.328;8.720;2024-02-14T02:35:53;4.27;;;3.50;;
14381;SDS011;7275;50.328;8.720;2024-02-14T02:38:21;7.30;;;4.43;;
14381;SDS011;7275;50.328;8.720;2024-02-14T02:40:50;6.23;;;3.90;;
14381;SDS011;7275;50.328;8.720;2024-02-14T02:43:18;5.07;;;4.00;;
14381;SDS011;7275;50.328;8.720;2024-02-14T02:45:45;9.43;;;4.10;;
14381;SDS011;7275;50.328;8.720;2024-02-14T02:48:13;6.07;;;4.07;;
14381;SDS011;7275;50.328;8.720;2024-02-14T02:50:41;5.23;;;4.00;;
14381;SDS011;7275;50.328;8.720;2024-02-14T02:53:10;6.57;;;4.20;;
14381;SDS011;7275;50.328;8.720;2024-02-14T02:55:38;5.53;;;3.47;;
14381;SDS011;7275;50.328;8.720;2024-02-14T02:58:07;5.10;;;3.60;;
14381;SDS011;7275;50.328;8.720;2024-02-14T03:00:35;5.20;;;3.60;;
14381;SDS011;7275;50.328;8.720;2024-02-14T03:03:03;4.90;;;3.53;;
14381;SDS011;7275;50.328;8.720;2024-02-14T03:05:31;6.33;;;3.97;;
14381;SDS011;7275;50.328;8.720;2024-02-14T03:07:59;5.73;;;3.67;;
14381;SDS011;7275;50.328;8.720;2024-02-14T03:10:27;5.83;;;3.63;;
14381;SDS011;7275;50.328;8.720;2024-02-14T03:12:55;5.87;;;3.60;;
14381;SDS011;7275;50.328;8.720;2024-02-14T03:15:24;5.60;;;3.63;;
14381;SDS011;7275;50.328;8.720;2024-02-14T03:17:52;6.17;;;3.30;;
14381;SDS011;7275;50.328;8.720;2024-02-14T03:20:20;7.77;;;3.90;;
14381;SDS011;7275;50.328;8.720;2024-02-14T03:22:47;6.20;;;3.70;;
14381;SDS011;7275;50.328;8.720;2024-02-14T03:25:16;6.67;;;4.00;;
14381;SDS011;7275;50.328;8.720;2024-02-14T03:27:44;6.03;;;4.10;;
14381;SDS011;7275;50.328;8.720;2024-02-14T03:30:13;6.83;;;4.10;;
14381;SDS011;7275;50.328;8.720;2024-02-14T03:32:45;7.30;;;4.23;;
14381;SDS011;7275;50.328;8.720;2024-02-14T03:35:13;4.73;;;3.63;;
14381;SDS011;7275;50.328;8.720;2024-02-14T03:37:41;6.00;;;4.10;;
14381;SDS011;7275;50.328;8.720;2024-02-14T03:40:10;8.60;;;4.20;;
14381;SDS011;7275;50.328;8.720;2024-02-14T03:42:38;5.20;;;3.73;;
14381;SDS011;7275;50.328;8.720;2024-02-14T03:45:06;5.87;;;3.80;;
14381;SDS011;7275;50.328;8.720;2024-02-14T03:47:35;7.03;;;4.10;;
14381;SDS011;7275;50.328;8.720;2024-02-14T03:50:04;7.93;;;4.10;;
14381;SDS011;7275;50.328;8.720;2024-02-14T03:52:33;4.23;;;3.47;;
14381;SDS011;7275;50.328;8.720;2024-02-14T03:55:01;6.33;;;3.80;;
14381;SDS011;7275;50.328;8.720;2024-02-14T03:57:29;5.10;;;3.60;;
14381;SDS011;7275;50.328;8.720;2024-02-14T03:59:59;6.13;;;3.70;;
14381;SDS011;7275;50.328;8.720;2024-02-14T04:02:29;5.03;;;3.77;;
14381;SDS011;7275;50.328;8.720;2024-02-14T04:04:58;6.37;;;3.83;;
14381;SDS011;7275;50.328;8.720;2024-02-14T04:07:27;5.10;;;3.93;;
14381;SDS011;7275;50.328;8.720;2024-02-14T04:09:55;7.17;;;3.83;;
14381;SDS011;7275;50.328;8.720;2024-02-14T04:12:23;4.70;;;3.20;;
14381;SDS011;7275;50.328;8.720;2024-02-14T04:14:51;5.50;;;3.50;;
14381;SDS011;7275;50.328;8.720;2024-02-14T04:17:19;4.73;;;3.80;;
14381;SDS011;7275;50.328;8.720;2024-02-14T04:19:46;5.93;;;3.53;;
14381;SDS011;7275;50.328;8.720;2024-02-14T04:22:14;5.83;;;3.80;;
14381;SDS011;7275;50.328;8.720;2024-02-14T04:24:43;4.43;;;3.60;;
14381;SDS011;7275;50.328;8.720;2024-02-14T04:27:10;5.70;;;3.70;;
14381;SDS011;7275;50.328;8.720;2024-02-14T04:29:38;5.60;;;3.60;;
14381;SDS011;7275;50.328;8.720;2024-02-14T04:32:05;5.90;;;3.97;;
14381;SDS011;7275;50.328;8.720;2024-02-14T04:34:35;6.17;;;3.83;;
14381;SDS011;7275;50.328;8.720;2024-02-14T04:37:05;6.53;;;3.50;;
14381;SDS011;7275;50.328;8.720;2024-02-14T04:39:36;5.83;;;3.50;;
14381;SDS011;7275;50.328;8.720;2024-02-14T04:42:05;4.80;;;3.67;;
14381;SDS011;7275;50.328;8.720;2024-02-14T04:44:32;7.30;;;3.50;;
14381;SDS011;7275;50.328;8.720;2024-02-14T04:47:00;5.27;;;3.30;;
14381;SDS011;7275;50.328;8.720;2024-02-14T04:49:28;6.73;;;3.33;;
14381;SDS011;7275;50.328;8.720;2024-02-14T04:51:56;5.23;;;3.57;;
14381;SDS011;7275;50.328;8.720;2024-02-14T04:54:24;5.37;;;3.60;;
14381;SDS011;7275;50.328;8.720;2024-02-14T04:56:53;5.17;;;3.57;;
14381;SDS011;7275;50.328;8.720;2024-02-14T04:59:27;6.53;;;3.80;;
14381;SDS011;7275;50.328;8.720;2024-02-14T05:01:54;5.63;;;3.57;;
14381;SDS011;7275;50.328;8.720;2024-02-14T05:04:22;5.03;;;3.57;;
14381;SDS011;7275;50.328;8.720;2024-02-14T05:06:50;5.47;;;3.80;;
14381;SDS011;7275;50.328;8.720;2024-02-14T05:09:24;6.03;;;3.80;;
14381;SDS011;7275;50.328;8.720;2024-02-14T05:11:51;7.70;;;3.70;;
14381;SDS011;7275;50.328;8.720;2024-02-14T05:14:19;6.27;;;3.80;;
14381;SDS011;7275;50.328;8.720;2024-02-14T05:16:48;6.37;;;3.57;;
14381;SDS011;7275;50.328;8.720;2024-02-14T05:19:16;4.00;;;3.33;;
14381;SDS011;7275;50.328;8.720;2024-02-14T05:21:44;4.73;;;3.43;;
14381;SDS011;7275;50.328;8.720;2024-02-14T05:24:11;5.70;;;3.60;;
14381;SDS011;7275;50.328;8.720;2024-02-14T05:26:39;6.83;;;3.87;;
14381;SDS011;7275;50.328;8.720;2024-02-14T05:29:07;6.23;;;3.80;;
14381;SDS011;7275;50.328;8.720;2024-02-14T05:31:42;5.07;;;3.80;;
14381;SDS011;7275;50.328;8.720;2024-02-14T05:34:12;5.63;;;3.53;;
14381;SDS011;7275;50.328;8.720;2024-02-14T05:36:40;7.97;;;3.80;;
14381;SDS011;7275;50.328;8.720;2024-02-14T05:39:09;5.03;;;3.70;;
14381;SDS011;7275;50.328;8.720;2024-02-14T05:41:37;6.80;;;4.00;;
14381;SDS011;7275;50.328;8.720;2024-02-14T05:44:04;6.30;;;4.10;;
14381;SDS011;7275;50.328;8.720;2024-02-14T05:46:32;7.03;;;3.80;;
14381;SDS011;7275;50.328;8.720;2024-02-14T05:49:00;6.90;;;4.07;;
14381;SDS011;7275;50.328;8.720;2024-02-14T05:51:29;5.50;;;3.87;;
14381;SDS011;7275;50.328;8.720;2024-02-14T05:53:58;5.40;;;4.00;;
14381;SDS011;7275;50.328;8.720;2024-02-14T05:56:26;5.03;;;3.93;;
14381;SDS011;7275;50.328;8.720;2024-02-14T05:58:53;5.97;;;3.97;;
14381;SDS011;7275;50.328;8.720;2024-02-14T06:01:21;7.77;;;4.77;;
14381;SDS011;7275;50.328;8.720;2024-02-14T06:03:49;6.13;;;4.07;;
14381;SDS011;7275;50.328;8.720;2024-02-14T06:06:17;7.20;;;4.10;;
14381;SDS011;7275;50.328;8.720;2024-02-14T06:08:46;5.00;;;4.03;;
14381;SDS011;7275;50.328;8.720;2024-02-14T06:11:13;5.73;;;4.17;;
14381;SDS011;7275;50.328;8.720;2024-02-14T06:13:42;8.10;;;4.10;;
14381;SDS011;7275;50.328;8.720;2024-02-14T06:16:10;6.13;;;4.20;;
14381;SDS011;7275;50.328;8.720;2024-02-14T06:18:38;5.87;;;4.10;;
14381;SDS011;7275;50.328;8.720;2024-02-14T06:21:06;6.30;;;4.20;;
14381;SDS011;7275;50.328;8.720;2024-02-14T06:23:34;6.60;;;4.13;;
14381;SDS011;7275;50.328;8.720;2024-02-14T06:26:04;8.13;;;4.30;;
14381;SDS011;7275;50.328;8.720;2024-02-14T06:28:32;7.10;;;4.30;;
14381;SDS011;7275;50.328;8.720;2024-02-14T06:30:59;4.70;;;4.00;;
14381;SDS011;7275;50.328;8.720;2024-02-14T06:33:27;5.70;;;3.70;;
14381;SDS011;7275;50.328;8.720;2024-02-14T06:35:55;6.47;;;4.20;;
14381;SDS011;7275;50.328;8.720;2024-02-14T06:38:23;6.97;;;3.73;;
14381;SDS011;7275;50.328;8.720;2024-02-14T06:40:51;5.83;;;4.03;;
14381;SDS011;7275;50.328;8.720;2024-02-14T06:43:20;6.27;;;3.80;;
14381;SDS011;7275;50.328;8.720;2024-02-14T06:45:47;5.13;;;3.67;;
14381;SDS011;7275;50.328;8.720;2024-02-14T06:48:15;5.60;;;3.80;;
14381;SDS011;7275;50.328;8.720;2024-02-14T06:50:42;6.60;;;4.00;;
14381;SDS011;7275;50.328;8.720;2024-02-14T06:53:10;5.40;;;3.63;;
14381;SDS011;7275;50.328;8.720;2024-02-14T06:55:38;4.50;;;3.73;;
14381;SDS011;7275;50.328;8.720;2024-02-14T06:58:05;5.50;;;3.50;;
14381;SDS011;7275;50.328;8.720;2024-02-14T07:00:34;6.77;;;3.47;;
14381;SDS011;7275;50.328;8.720;2024-02-14T07:03:02;6.77;;;4.00;;
14381;SDS011;7275;50.328;8.720;2024-02-14T07:05:30;4.83;;;3.30;;
14381;SDS011;7275;50.328;8.720;2024-02-14T07:07:58;5.73;;;3.53;;
14381;SDS011;7275;50.328;8.720;2024-02-14T07:10:26;4.23;;;3.53;;
14381;SDS011;7275;50.328;8.720;2024-02-14T07:12:54;6.07;;;3.60;;
14381;SDS011;7275;50.328;8.720;2024-02-14T07:15:21;6.63;;;3.43;;
14381;SDS011;7275;50.328;8.720;2024-02-14T07:17:53;5.97;;;3.43;;
14381;SDS011;7275;50.328;8.720;2024-02-14T07:20:21;6.30;;;3.90;;
14381;SDS011;7275;50.328;8.720;2024-02-14T07:22:49;8.20;;;3.70;;
14381;SDS011;7275;50.328;8.720;2024-02-14T07:25:19;3.70;;;3.30;;
14381;SDS011;7275;50.328;8.720;2024-02-14T07:27:47;6.93;;;3.70;;
14381;SDS011;7275;50.328;8.720;2024-02-14T07:30:15;5.93;;;3.60;;
14381;SDS011;7275;50.328;8.720;2024-02-14T07:32:43;5.50;;;3.30;;
14381;SDS011;7275;50.328;8.720;2024-02-14T07:35:13;6.40;;;3.57;;
14381;SDS011;7275;50.328;8.720;2024-02-14T07:37:41;10.40;;;4.03;;
14381;SDS011;7275;50.328;8.720;2024-02-14T07:40:09;6.80;;;3.80;;
14381;SDS011;7275;50.328;8.720;2024-02-14T07:42:40;6.70;;;3.70;;
14381;SDS011;7275;50.328;8.720;2024-02-14T07:45:08;4.90;;;3.50;;
14381;SDS011;7275;50.328;8.720;2024-02-14T07:47:36;6.03;;;4.17;;
14381;SDS011;7275;50.328;8.720;2024-02-14T07:50:04;5.07;;;3.40;;
14381;SDS011;7275;50.328;8.720;2024-02-14T07:52:33;6.60;;;3.40;;
14381;SDS011;7275;50.328;8.720;2024-02-14T07:55:03;5.03;;;3.60;;
14381;SDS011;7275;50.328;8.720;2024-02-14T07:57:31;7.03;;;3.70;;
14381;SDS011;7275;50.328;8.720;2024-02-14T07:59:58;4.87;;;3.43;;
14381;SDS011;7275;50.328;8.720;2024-02-14T08:02:26;6.70;;;3.60;;
14381;SDS011;7275;50.328;8.720;2024-02-14T08:04:55;4.10;;;3.27;;
14381;SDS011;7275;50.328;8.720;2024-02-14T08:07:23;5.60;;;3.13;;
14381;SDS011;7275;50.328;8.720;2024-02-14T08:09:52;6.23;;;3.63;;
14381;SDS011;7275;50.328;8.720;2024-02-14T08:12:20;5.73;;;3.43;;
14381;SDS011;7275;50.328;8.720;2024-02-14T08:14:48;6.20;;;3.60;;
14381;SDS011;7275;50.328;8.720;2024-02-14T08:17:15;3.87;;;3.00;;
14381;SDS011;7275;50.328;8.720;2024-02-14T08:19:43;4.93;;;2.93;;
14381;SDS011;7275;50.328;8.720;2024-02-14T08:22:10;4.93;;;3.40;;
14381;SDS011;7275;50.328;8.720;2024-02-14T08:24:38;5.27;;;3.20;;
14381;SDS011;7275;50.328;8.720;2024-02-14T08:27:07;5.37;;;3.40;;
14381;SDS011;7275;50.328;8.720;2024-02-14T08:29:35;4.57;;;3.30;;
14381;SDS011;7275;50.328;8.720;2024-02-14T08:32:03;7.23;;;3.20;;
14381;SDS011;7275;50.328;8.720;2024-02-14T08:34:31;4.97;;;3.33;;
14381;SDS011;7275;50.328;8.720;2024-02-14T08:36:59;5.27;;;3.17;;
14381;SDS011;7275;50.328;8.720;2024-02-14T08:39:26;5.43;;;3.67;;
14381;SDS011;7275;50.328;8.720;2024-02-14T08:41:55;5.73;;;3.10;;
14381;SDS011;7275;50.328;8.720;2024-02-14T08:44:24;4.67;;;3.13;;
14381;SDS011;7275;50.328;8.720;2024-02-14T08:46:51;6.10;;;3.53;;
14381;SDS011;7275;50.328;8.720;2024-02-14T08:49:19;5.57;;;3.27;;
14381;SDS011;7275;50.328;8.720;2024-02-14T08:51:47;6.70;;;3.60;;
14381;SDS011;7275;50.328;8.720;2024-02-14T08:54:15;5.87;;;3.33;;
14381;SDS011;7275;50.328;8.720;2024-02-14T08:56:43;7.20;;;3.57;;
14381;SDS011;7275;50.328;8.720;2024-02-14T08:59:10;5.83;;;3.90;;
14381;SDS011;7275;50.328;8.720;2024-02-14T09:01:40;6.20;;;3.60;;
14381;SDS011;7275;50.328;8.720;2024-02-14T09:04:08;6.17;;;3.70;;
14381;SDS011;7275;50.328;8.720;2024-02-14T09:06:35;5.30;;;3.53;;
14381;SDS011;7275;50.328;8.720;2024-02-14T09:09:05;8.27;;;3.50;;
14381;SDS011;7275;50.328;8.720;2024-02-14T09:11:36;8.10;;;3.73;;
14381;SDS011;7275;50.328;8.720;2024-02-14T09:14:04;5.43;;;3.60;;
14381;SDS011;7275;50.328;8.720;2024-02-14T09:16:32;4.73;;;3.07;;
14381;SDS011;7275;50.328;8.720;2024-02-14T09:19:01;5.23;;;3.60;;
14381;SDS011;7275;50.328;8.720;2024-02-14T09:21:29;4.53;;;3.40;;
14381;SDS011;7275;50.328;8.720;2024-02-14T09:23:59;4.57;;;3.40;;
14381;SDS011;7275;50.328;8.720;2024-02-14T09:26:27;5.47;;;3.33;;
14381;SDS011;7275;50.328;8.720;2024-02-14T09:28:54;6.33;;;3.30;;
14381;SDS011;7275;50.328;8.720;2024-02-14T09:31:22;4.60;;;3.50;;
14381;SDS011;7275;50.328;8.720;2024-02-14T09:33:49;3.70;;;3.10;;
14381;SDS011;7275;50.328;8.720;2024-02-14T09:36:19;5.67;;;3.47;;
14381;SDS011;7275;50.328;8.720;2024-02-14T09:38:47;4.13;;;3.17;;
14381;SDS011;7275;50.328;8.720;2024-02-14T09:41:15;4.60;;;3.20;;
14381;SDS011;7275;50.328;8.720;2024-02-14T09:43:49;5.30;;;3.17;;
14381;SDS011;7275;50.328;8.720;2024-02-14T09:46:17;5.83;;;3.10;;
14381;SDS011;7275;50.328;8.720;2024-02-14T09:48:45;5.60;;;3.00;;
14381;SDS011;7275;50.328;8.720;2024-02-14T09:51:13;6.50;;;3.10;;
14381;SDS011;7275;50.328;8.720;2024-02-14T09:53:42;4.43;;;2.93;;
14381;SDS011;7275;50.328;8.720;2024-02-14T09:56:11;5.40;;;3.20;;
14381;SDS011;7275;50.328;8.720;2024-02-14T09:58:41;6.10;;;2.80;;
14381;SDS011;7275;50.328;8.720;2024-02-14T10:01:08;3.80;;;2.80;;
14381;SDS011;7275;50.328;8.720;2024-02-14T10:10:23;3.30;;;2.63;;
14381;SDS011;7275;50.328;8.720;2024-02-14T10:12:53;3.80;;;2.50;;
14381;SDS011;7275;50.328;8.720;2024-02-14T10:15:22;2.70;;;2.43;;
14381;SDS011;7275;50.328;8.720;2024-02-14T10:17:49;4.60;;;2.60;;
14381;SDS011;7275;50.328;8.720;2024-02-14T10:20:17;3.77;;;2.50;;
14381;SDS011;7275;50.328;8.720;2024-02-14T10:22:45;3.53;;;2.50;;
14381;SDS011;7275;50.328;8.720;2024-02-14T10:25:12;4.07;;;2.60;;
14381;SDS011;7275;50.328;8.720;2024-02-14T10:27:42;3.23;;;2.60;;
14381;SDS011;7275;50.328;8.720;2024-02-14T10:30:10;3.40;;;2.67;;
14381;SDS011;7275;50.328;8.720;2024-02-14T10:32:38;3.63;;;2.47;;
14381;SDS011;7275;50.328;8.720;2024-02-14T10:35:07;3.13;;;2.40;;
14381;SDS011;7275;50.328;8.720;2024-02-14T10:37:38;3.70;;;2.40;;
14381;SDS011;7275;50.328;8.720;2024-02-14T10:40:06;3.47;;;2.60;;
14381;SDS011;7275;50.328;8.720;2024-02-14T10:42:35;4.40;;;2.63;;
14381;SDS011;7275;50.328;8.720;2024-02-14T10:45:05;3.90;;;2.40;;
14381;SDS011;7275;50.328;8.720;2024-02-14T10:47:34;3.07;;;2.60;;
14381;SDS011;7275;50.328;8.720;2024-02-14T10:50:03;2.53;;;2.20;;
14381;SDS011;7275;50.328;8.720;2024-02-14T10:52:34;4.13;;;2.30;;
14381;SDS011;7275;50.328;8.720;2024-02-14T10:55:03;3.03;;;2.30;;
14381;SDS011;7275;50.328;8.720;2024-02-14T10:57:32;3.17;;;2.37;;
14381;SDS011;7275;50.328;8.720;2024-02-14T11:00:01;4.60;;;2.60;;
14381;SDS011;7275;50.328;8.720;2024-02-14T11:02:33;2.83;;;2.33;;
14381;SDS011;7275;50.328;8.720;2024-02-14T11:05:02;4.37;;;2.60;;
14381;SDS011;7275;50.328;8.720;2024-02-14T11:07:31;3.57;;;2.40;;
14381;SDS011;7275;50.328;8.720;2024-02-14T11:10:04;2.97;;;2.03;;
14381;SDS011;7275;50.328;8.720;2024-02-14T11:12:33;3.20;;;2.40;;
14381;SDS011;7275;50.328;8.720;2024-02-14T11:15:08;4.03;;;2.20;;
14381;SDS011;7275;50.328;8.720;2024-02-14T11:17:38;3.90;;;2.20;;
14381;SDS011;7275;50.328;8.720;2024-02-14T11:20:14;5.37;;;2.60;;
14381;SDS011;7275;50.328;8.720;2024-02-14T11:22:50;3.73;;;2.37;;
14381;SDS011;7275;50.328;8.720;2024-02-14T11:25:22;3.23;;;2.30;;
14381;SDS011;7275;50.328;8.720;2024-02-14T11:27:51;2.77;;;2.00;;
14381;SDS011;7275;50.328;8.720;2024-02-14T11:30:29;3.60;;;2.00;;
14381;SDS011;7275;50.328;8.720;2024-02-14T11:33:15;2.43;;;2.10;;
14381;SDS011;7275;50.328;8.720;2024-02-14T11:35:45;2.20;;;2.00;;
14381;SDS011;7275;50.328;8.720;2024-02-14T11:38:13;3.27;;;2.13;;
14381;SDS011;7275;50.328;8.720;2024-02-14T11:40:41;2.70;;;2.10;;
14381;SDS011;7275;50.328;8.720;2024-02-14T11:43:12;2.53;;;1.97;;
14381;SDS011;7275;50.328;8.720;2024-02-14T11:45:41;2.80;;;2.00;;
14381;SDS011;7275;50.328;8.720;2024-02-14T11:48:10;2.60;;;1.90;;
14381;SDS011;7275;50.328;8.720;2024-02-14T11:50:40;2.83;;;1.80;;
14381;SDS011;7275;50.328;8.720;2024-02-14T11:53:09;3.13;;;2.20;;
14381;SDS011;7275;50.328;8.720;2024-02-14T11:55:38;2.73;;;2.00;;
14381;SDS011;7275;50.328;8.720;2024-02-14T11:58:06;2.10;;;1.80;;
14381;SDS011;7275;50.328;8.720;2024-02-14T12:00:37;2.33;;;1.70;;
14381;SDS011;7275;50.328;8.720;2024-02-14T12:03:06;2.20;;;1.70;;
14381;SDS011;7275;50.328;8.720;2024-02-14T12:05:35;2.53;;;1.70;;
14381;SDS011;7275;50.328;8.720;2024-02-14T12:08:06;2.07;;;1.70;;
14381;SDS011;7275;50.328;8.720;2024-02-14T12:10:34;2.10;;;1.70;;
14381;SDS011;7275;50.328;8.720;2024-02-14T12:13:06;4.20;;;1.63;;
14381;SDS011;7275;50.328;8.720;2024-02-14T12:15:38;2.40;;;1.90;;
14381;SDS011;7275;50.328;8.720;2024-02-14T12:18:06;4.27;;;1.77;;
14381;SDS011;7275;50.328;8.720;2024-02-14T12:20:35;2.53;;;1.40;;
14381;SDS011;7275;50.328;8.720;2024-02-14T12:23:03;2.27;;;1.60;;
14381;SDS011;7275;50.328;8.720;2024-02-14T12:25:33;1.50;;;1.40;;
14381;SDS011;7275;50.328;8.720;2024-02-14T12:28:01;2.20;;;1.40;;
14381;SDS011;7275;50.328;8.720;2024-02-14T12:30:41;2.17;;;1.40;;
14381;SDS011;7275;50.328;8.720;2024-02-14T12:33:11;2.00;;;1.50;;
14381;SDS011;7275;50.328;8.720;2024-02-14T12:35:43;1.77;;;1.50;;
14381;SDS011;7275;50.328;8.720;2024-02-14T12:38:15;1.63;;;1.50;;
14381;SDS011;7275;50.328;8.720;2024-02-14T12:40:43;3.97;;;1.90;;
14381;SDS011;7275;50.328;8.720;2024-02-14T12:43:11;4.37;;;1.67;;
14381;SDS011;7275;50.328;8.720;2024-02-14T12:45:41;2.57;;;1.60;;
14381;SDS011;7275;50.328;8.720;2024-02-14T12:48:10;1.80;;;1.50;;
14381;SDS011;7275;50.328;8.720;2024-02-14T12:50:41;3.77;;;1.80;;
14381;SDS011;7275;50.328;8.720;2024-02-14T12:53:16;1.70;;;1.53;;
14381;SDS011;7275;50.328;8.720;2024-02-14T12:55:43;1.67;;;1.50;;
14381;SDS011;7275;50.328;8.720;2024-02-14T12:58:11;1.80;;;1.60;;
14381;SDS011;7275;50.328;8.720;2024-02-14T13:00:38;3.07;;;1.70;;
14381;SDS011;7275;50.328;8.720;2024-02-14T13:03:06;1.90;;;1.40;;
14381;SDS011;7275;50.328;8.720;2024-02-14T13:05:34;3.33;;;1.53;;
14381;SDS011;7275;50.328;8.720;2024-02-14T13:08:02;3.23;;;1.60;;
14381;SDS011;7275;50.328;8.720;2024-02-14T13:10:31;2.37;;;1.90;;
14381;SDS011;7275;50.328;8.720;2024-02-14T13:12:59;1.80;;;1.30;;
14381;SDS011;7275;50.328;8.720;2024-02-14T13:15:26;3.23;;;1.70;;
14381;SDS011;7275;50.328;8.720;2024-02-14T13:17:54;1.83;;;1.50;;
14381;SDS011;7275;50.328;8.720;2024-02-14T13:20:25;1.70;;;1.50;;
14381;SDS011;7275;50.328;8.720;2024-02-14T13:22:52;2.70;;;1.60;;
14381;SDS011;7275;50.328;8.720;2024-02-14T13:25:20;2.33;;;1.83;;
14381;SDS011;7275;50.328;8.720;2024-02-14T13:27:50;2.00;;;1.80;;
14381;SDS011;7275;50.328;8.720;2024-02-14T13:30:18;2.97;;;1.73;;
14381;SDS011;7275;50.328;8.720;2024-02-14T13:32:45;2.50;;;1.67;;
14381;SDS011;7275;50.328;8.720;2024-02-14T13:35:14;3.23;;;1.83;;
14381;SDS011;7275;50.328;8.720;2024-02-14T13:37:41;2.03;;;1.60;;
14381;SDS011;7275;50.328;8.720;2024-02-14T13:40:11;3.07;;;1.93;;
14381;SDS011;7275;50.328;8.720;2024-02-14T13:42:38;3.20;;;1.90;;
14381;SDS011;7275;50.328;8.720;2024-02-14T13:45:08;1.90;;;1.70;;
14381;SDS011;7275;50.328;8.720;2024-02-14T13:47:36;2.60;;;1.80;;
14381;SDS011;7275;50.328;8.720;2024-02-14T13:50:07;3.73;;;1.90;;
14381;SDS011;7275;50.328;8.720;2024-02-14T13:52:35;2.30;;;2.00;;
14381;SDS011;7275;50.328;8.720;2024-02-14T13:55:03;2.73;;;2.07;;
14381;SDS011;7275;50.328;8.720;2024-02-14T13:57:31;4.53;;;2.20;;
14381;SDS011;7275;50.328;8.720;2024-02-14T13:59:59;3.07;;;2.60;;
14381;SDS011;7275;50.328;8.720;2024-02-14T14:02:28;4.70;;;2.40;;
14381;SDS011;7275;50.328;8.720;2024-02-14T14:04:56;2.57;;;2.30;;
14381;SDS011;7275;50.328;8.720;2024-02-14T14:07:23;5.33;;;2.63;;
14381;SDS011;7275;50.328;8.720;2024-02-14T14:09:51;3.37;;;2.77;;
14381;SDS011;7275;50.328;8.720;2024-02-14T14:12:18;3.77;;;2.70;;
14381;SDS011;7275;50.328;8.720;2024-02-14T14:14:46;3.53;;;2.83;;
14381;SDS011;7275;50.328;8.720;2024-02-14T14:17:14;3.47;;;2.50;;
14381;SDS011;7275;50.328;8.720;2024-02-14T14:19:43;2.80;;;2.50;;
14381;SDS011;7275;50.328;8.720;2024-02-14T14:22:11;3.27;;;2.50;;
14381;SDS011;7275;50.328;8.720;2024-02-14T14:24:38;4.40;;;2.93;;
14381;SDS011;7275;50.328;8.720;2024-02-14T14:27:06;3.60;;;2.63;;
14381;SDS011;7275;50.328;8.720;2024-02-14T14:29:35;3.87;;;2.80;;
14381;SDS011;7275;50.328;8.720;2024-02-14T14:32:03;3.90;;;2.70;;
14381;SDS011;7275;50.328;8.720;2024-02-14T14:34:31;2.70;;;2.50;;
14381;SDS011;7275;50.328;8.720;2024-02-14T14:37:00;4.70;;;2.53;;
14381;SDS011;7275;50.328;8.720;2024-02-14T14:39:28;3.53;;;2.80;;
14381;SDS011;7275;50.328;8.720;2024-02-14T14:41:57;4.27;;;2.60;;
14381;SDS011;7275;50.328;8.720;2024-02-14T14:44:25;3.80;;;2.80;;
14381;SDS011;7275;50.328;8.720;2024-02-14T14:46:53;3.83;;;2.90;;
14381;SDS011;7275;50.328;8.720;2024-02-14T14:49:20;3.30;;;2.77;;
14381;SDS011;7275;50.328;8.720;2024-02-14T14:51:48;3.80;;;2.50;;
14381;SDS011;7275;50.328;8.720;2024-02-14T14:54:17;4.53;;;3.10;;
14381;SDS011;7275;50.328;8.720;2024-02-14T14:56:52;4.60;;;2.83;;
14381;SDS011;7275;50.328;8.720;2024-02-14T14:59:20;3.47;;;2.80;;
14381;SDS011;7275;50.328;8.720;2024-02-14T15:01:48;4.03;;;2.90;;
14381;SDS011;7275;50.328;8.720;2024-02-14T15:04:16;3.77;;;3.07;;
14381;SDS011;7275;50.328;8.720;2024-02-14T15:06:46;5.33;;;2.93;;
14381;SDS011;7275;50.328;8.720;2024-02-14T15:09:18;3.40;;;3.10;;
14381;SDS011;7275;50.328;8.720;2024-02-14T15:11:46;3.83;;;3.13;;
14381;SDS011;7275;50.328;8.720;2024-02-14T15:14:14;4.80;;;3.33;;